Time;durP1;ratioP1;P1;durP2;ratioP2;P2;SDS_P1;SDS_P2;PMS_P1;PMS_P2;Temp;Humidity;BMP_temperature;BMP_pressure;BME280_temperature;BME280_humidity;BME280_pressure;Samples;Min_cycle;Max_cycle;Signal;HPM_P1;HPM_P2
2022/10/23 00:01:28;;;;;;;3.42;1.50;;;20.30;99.90;;;;;;5051109;28;20048;-66
2022/10/23 00:03:57;;;;;;;2.92;1.73;;;20.20;99.90;;;;;;5050795;28;20389;-66
2022/10/23 00:06:26;;;;;;;4.03;1.83;;;20.10;99.90;;;;;;5049958;28;20025;-66
2022/10/23 00:08:53;;;;;;;3.28;1.70;;;20.00;99.90;;;;;;5050498;28;20025;-64
2022/10/23 00:11:24;;;;;;;3.55;1.40;;;20.00;99.90;;;;;;5050674;28;20044;-65
2022/10/23 00:13:53;;;;;;;2.33;1.60;;;19.90;99.90;;;;;;5050409;28;20079;-65
2022/10/23 00:16:21;;;;;;;2.40;1.50;;;20.00;99.90;;;;;;5050438;28;20095;-64
2022/10/23 00:18:48;;;;;;;2.13;1.40;;;20.20;99.90;;;;;;5050395;28;20108;-65
2022/10/23 00:21:16;;;;;;;3.28;2.17;;;20.40;99.90;;;;;;5050446;28;20017;-64
2022/10/23 00:23:44;;;;;;;3.67;2.47;;;20.60;99.90;;;;;;5050612;28;20024;-64
2022/10/23 00:26:15;;;;;;;3.53;2.40;;;20.70;99.90;;;;;;5050517;28;20017;-64
2022/10/23 00:28:45;;;;;;;4.32;2.50;;;20.80;99.90;;;;;;5050789;28;20043;-65
2022/10/23 00:31:13;;;;;;;2.83;1.70;;;20.90;99.90;;;;;;5050432;28;20130;-67
2022/10/23 00:33:41;;;;;;;6.90;1.98;;;21.10;99.90;;;;;;5050100;28;20056;-69
2022/10/23 00:36:10;;;;;;;2.42;1.70;;;21.20;99.90;;;;;;5049865;28;20029;-70
2022/10/23 00:38:38;;;;;;;3.70;2.10;;;21.40;99.90;;;;;;5049129;28;20024;-69
2022/10/23 00:41:07;;;;;;;2.92;2.00;;;21.70;99.90;;;;;;5049886;28;20017;-66
2022/10/23 00:43:53;;;;;;;2.22;1.55;;;21.90;99.90;;;;;;5049363;28;20025;-65
2022/10/23 00:46:20;;;;;;;2.85;1.83;;;22.00;99.90;;;;;;5049572;28;20080;-65
2022/10/23 00:48:47;;;;;;;2.90;1.83;;;22.00;99.90;;;;;;5049879;28;20111;-65
2022/10/23 00:51:15;;;;;;;4.15;1.30;;;22.00;99.90;;;;;;5050042;28;20108;-65
2022/10/23 00:53:45;;;;;;;1.95;1.40;;;21.90;99.90;;;;;;5047855;28;20041;-64
2022/10/23 00:56:12;;;;;;;3.65;2.08;;;22.20;99.90;;;;;;5046674;28;20036;-65
2022/10/23 00:58:39;;;;;;;2.58;1.27;;;22.20;99.90;;;;;;5048626;28;20113;-63
2022/10/23 01:01:19;;;;;;;3.22;1.55;;;22.40;99.90;;;;;;5070349;28;20028;-66
2022/10/23 01:03:47;;;;;;;1.50;1.17;;;22.20;99.90;;;;;;5049555;28;20394;-67
2022/10/23 01:06:41;;;;;;;1.40;0.98;;;22.50;99.90;;;;;;5049836;28;20025;-68
2022/10/23 01:09:09;;;;;;;2.17;1.30;;;22.90;98.90;;;;;;5047805;28;20044;-69
2022/10/23 01:12:00;;;;;;;4.15;1.50;;;23.10;98.90;;;;;;5049419;28;20087;-65
2022/10/23 01:14:50;;;;;;;10.88;2.95;;;23.00;97.10;;;;;;5035191;28;20044;-66
2022/10/23 01:17:36;;;;;;;4.30;1.25;;;23.00;97.20;;;;;;5039057;28;20439;-67
2022/10/23 01:20:20;;;;;;;2.53;1.25;;;22.70;97.00;;;;;;5048831;28;20036;-65
2022/10/23 01:23:17;;;;;;;1.60;0.90;;;22.70;96.90;;;;;;5049387;28;20029;-66
2022/10/23 01:26:10;;;;;;;6.28;1.73;;;22.80;98.40;;;;;;5046418;28;20486;-68
2022/10/23 01:29:00;;;;;;;23.50;9.50;;;23.10;99.90;;;;;;5053025;28;20130;-67
2022/10/23 01:31:38;;;;;;;13.82;4.88;;;23.30;99.90;;;;;;5048823;28;20029;-70
2022/10/23 01:34:14;;;;;;;27.75;10.95;;;23.30;99.90;;;;;;5049043;28;20051;-67
2022/10/23 01:36:46;;;;;;;31.50;13.32;;;23.40;99.90;;;;;;5048871;28;20092;-67
2022/10/23 01:39:32;;;;;;;13.07;5.55;;;23.60;98.40;;;;;;5049430;28;20036;-67
2022/10/23 01:42:14;;;;;;;24.33;9.75;;;23.60;97.80;;;;;;5047750;28;20044;-67
2022/10/23 01:44:57;;;;;;;3.10;1.70;;;24.00;98.00;;;;;;5048354;28;20107;-68
2022/10/23 01:47:27;;;;;;;2.78;1.45;;;24.20;95.80;;;;;;5048701;28;20021;-68
2022/10/23 01:49:57;;;;;;;2.13;1.50;;;24.30;94.80;;;;;;5048298;28;20052;-66
2022/10/23 01:52:25;;;;;;;2.55;1.33;;;24.40;96.00;;;;;;5048379;28;20052;-67
2022/10/23 01:54:54;;;;;;;4.22;1.85;;;24.40;95.00;;;;;;5048835;28;20072;-67
2022/10/23 01:57:23;;;;;;;3.58;1.48;;;24.50;95.90;;;;;;5048230;28;20078;-67
2022/10/23 01:59:58;;;;;;;2.22;1.33;;;24.60;95.30;;;;;;5048857;28;20063;-66
2022/10/23 02:02:27;;;;;;;58.88;14.98;;;24.50;93.30;;;;;;5049003;28;20021;-68
2022/10/23 02:05:08;;;;;;;3.25;1.65;;;24.70;97.20;;;;;;5048169;28;20060;-69
2022/10/23 02:07:35;;;;;;;16.45;3.30;;;24.60;94.80;;;;;;5047095;28;20389;-66
2022/10/23 02:10:06;;;;;;;1.90;1.33;;;24.60;95.20;;;;;;5048541;28;20036;-68
2022/10/23 02:12:51;;;;;;;8.15;3.28;;;24.50;95.10;;;;;;5048115;28;20367;-63
2022/10/23 02:15:30;;;;;;;88.40;25.38;;;24.30;95.30;;;;;;5048653;28;20069;-63
2022/10/23 02:18:31;;;;;;;7.35;3.70;;;24.00;96.90;;;;;;5047576;28;20032;-63
2022/10/23 02:21:30;;;;;;;29.27;8.13;;;23.70;97.40;;;;;;5048840;28;20428;-62
2022/10/23 02:24:12;;;;;;;27.77;7.75;;;23.50;98.60;;;;;;5048346;28;20498;-62
2022/10/23 02:26:46;;;;;;;18.25;10.30;;;23.20;96.90;;;;;;5048797;28;20031;-60
2022/10/23 02:29:54;;;;;;;8.15;4.78;;;22.30;99.90;;;;;;5048540;28;20036;-61
2022/10/23 02:32:25;;;;;;;0.63;0.63;;;21.50;99.90;;;;;;5052209;28;20035;-60
2022/10/23 02:34:53;;;;;;;0.10;0.10;;;20.90;99.90;;;;;;5052150;28;20040;-61
2022/10/23 02:37:20;;;;;;;1.65;0.88;;;20.30;99.90;;;;;;5051498;28;20110;-60
2022/10/23 02:39:48;;;;;;;0.52;0.35;;;19.90;99.90;;;;;;5052356;28;20075;-61
2022/10/23 02:42:31;;;;;;;0.80;0.63;;;20.00;99.90;;;;;;5052559;28;20021;-60
2022/10/23 02:45:04;;;;;;;0.32;0.32;;;20.20;99.90;;;;;;5052243;28;20107;-60
2022/10/23 02:47:44;;;;;;;0.10;0.10;;;20.00;99.90;;;;;;5051670;28;20109;-59
2022/10/23 02:50:28;;;;;;;0.45;0.45;;;20.10;99.90;;;;;;5051971;28;20764;-60
2022/10/23 02:53:11;;;;;;;0.47;0.47;;;19.80;99.90;;;;;;5051721;28;20052;-60
2022/10/23 02:56:12;;;;;;;1.55;0.77;;;19.60;99.90;;;;;;5050019;28;20382;-60
2022/10/23 02:58:58;;;;;;;1.83;1.30;;;19.70;99.90;;;;;;5051901;28;20074;-60
2022/10/23 03:01:49;;;;;;;3.08;1.65;;;19.70;99.90;;;;;;5051782;28;20090;-59
2022/10/23 03:04:19;;;;;;;5.70;2.05;;;19.90;99.90;;;;;;5051767;28;20052;-60
2022/10/23 03:06:47;;;;;;;19.45;6.05;;;20.10;99.90;;;;;;5051631;28;20090;-60
2022/10/23 03:09:14;;;;;;;16.98;7.13;;;20.20;99.90;;;;;;5052028;28;20058;-61
2022/10/23 03:11:41;;;;;;;13.38;6.78;;;20.20;99.90;;;;;;5050918;28;20032;-62
2022/10/23 03:14:09;;;;;;;18.33;6.75;;;20.40;99.90;;;;;;5051219;28;20055;-60
2022/10/23 03:16:36;;;;;;;12.30;6.70;;;20.40;99.90;;;;;;5050956;28;20108;-60
2022/10/23 03:19:03;;;;;;;15.70;6.10;;;20.40;99.90;;;;;;5051289;28;20386;-59
2022/10/23 03:21:31;;;;;;;11.23;5.60;;;20.60;99.90;;;;;;5051531;28;20652;-59
2022/10/23 03:23:58;;;;;;;11.05;5.13;;;20.40;99.90;;;;;;5050072;28;20025;-67
2022/10/23 03:26:25;;;;;;;9.07;3.50;;;20.10;99.90;;;;;;5051240;28;20021;-67
2022/10/23 03:28:52;;;;;;;4.68;2.67;;;19.80;99.90;;;;;;5051353;28;20021;-66
2022/10/23 03:31:20;;;;;;;4.25;2.40;;;19.80;99.90;;;;;;5051337;28;20390;-66
2022/10/23 03:33:47;;;;;;;3.17;2.30;;;19.80;99.90;;;;;;5051553;28;20035;-66
2022/10/23 03:36:14;;;;;;;4.30;3.10;;;19.90;99.90;;;;;;5051974;28;20075;-65
2022/10/23 03:38:41;;;;;;;3.75;2.72;;;20.10;99.90;;;;;;5051970;28;20090;-65
2022/10/23 03:41:08;;;;;;;4.70;2.60;;;20.40;99.90;;;;;;5050367;28;20028;-66
2022/10/23 03:43:35;;;;;;;6.22;2.78;;;20.80;99.90;;;;;;5037044;28;20371;-66
2022/10/23 03:46:08;;;;;;;4.40;2.25;;;21.20;99.90;;;;;;5050738;28;20078;-66
2022/10/23 03:48:38;;;;;;;5.70;2.30;;;21.60;99.90;;;;;;5054659;28;20429;-65
2022/10/23 03:51:06;;;;;;;7.60;2.28;;;21.90;99.90;;;;;;5050940;28;20020;-65
2022/10/23 03:53:34;;;;;;;6.88;2.50;;;22.10;99.90;;;;;;5050294;28;20045;-65
2022/10/23 03:56:01;;;;;;;5.88;2.70;;;22.30;99.90;;;;;;5050702;28;20025;-66
2022/10/23 03:58:30;;;;;;;4.40;2.00;;;22.50;99.90;;;;;;5030976;28;20140;-65
2022/10/23 04:00:58;;;;;;;3.97;2.28;;;22.50;99.90;;;;;;5046716;28;20379;-65
2022/10/23 04:03:25;;;;;;;7.18;2.60;;;22.60;99.90;;;;;;5048014;28;20036;-66
2022/10/23 04:05:52;;;;;;;4.03;2.08;;;22.80;99.90;;;;;;5048120;28;20048;-66
2022/10/23 04:08:19;;;;;;;5.35;1.95;;;23.00;99.90;;;;;;5047870;28;20081;-67
2022/10/23 04:10:46;;;;;;;5.75;1.88;;;23.10;99.10;;;;;;5047750;28;20036;-64
2022/10/23 04:13:14;;;;;;;4.18;1.45;;;22.90;99.90;;;;;;5046482;28;20053;-67
2022/10/23 04:15:46;;;;;;;2.42;1.45;;;22.90;99.90;;;;;;5046732;28;20031;-66
2022/10/23 04:18:14;;;;;;;6.47;1.50;;;23.00;99.30;;;;;;5081294;28;20558;-65
2022/10/23 04:20:41;;;;;;;3.25;1.35;;;23.00;99.30;;;;;;5049630;28;20029;-65
2022/10/23 04:23:08;;;;;;;3.60;1.17;;;23.00;98.60;;;;;;5049729;28;20082;-66
2022/10/23 04:25:35;;;;;;;5.18;1.38;;;22.80;99.60;;;;;;5049803;28;20017;-66
2022/10/23 04:28:03;;;;;;;4.25;1.80;;;22.70;99.80;;;;;;5046106;28;20390;-65
2022/10/23 04:30:30;;;;;;;2.63;1.42;;;22.50;99.90;;;;;;5049669;28;20033;-65
2022/10/23 04:32:57;;;;;;;4.57;1.75;;;22.20;99.90;;;;;;5049035;28;20106;-65
2022/10/23 04:35:24;;;;;;;3.20;1.33;;;22.10;99.90;;;;;;5050059;28;20062;-65
2022/10/23 04:37:52;;;;;;;5.40;1.50;;;22.00;99.90;;;;;;5048590;28;20035;-66
2022/10/23 04:40:19;;;;;;;6.70;1.48;;;21.90;99.90;;;;;;5050313;28;20107;-66
2022/10/23 04:42:46;;;;;;;3.55;1.73;;;21.80;99.90;;;;;;5050002;28;20025;-66
2022/10/23 04:45:13;;;;;;;3.60;1.40;;;21.60;99.90;;;;;;5049925;28;20029;-65
2022/10/23 04:47:40;;;;;;;3.78;1.45;;;21.30;99.90;;;;;;5048114;28;20083;-65
2022/10/23 04:50:08;;;;;;;3.42;1.63;;;20.90;99.90;;;;;;5049473;28;20078;-65
2022/10/23 04:52:35;;;;;;;4.30;1.58;;;20.70;99.90;;;;;;5049064;28;20057;-65
2022/10/23 04:55:02;;;;;;;3.55;1.52;;;20.50;99.90;;;;;;5047596;28;20041;-65
2022/10/23 04:57:29;;;;;;;6.63;1.90;;;20.20;99.90;;;;;;5049060;28;20028;-61
2022/10/23 04:59:57;;;;;;;6.15;2.22;;;20.00;99.90;;;;;;5048006;28;20033;-60
2022/10/23 05:02:24;;;;;;;3.88;2.25;;;19.60;99.90;;;;;;5049229;28;20025;-60
2022/10/23 05:04:51;;;;;;;5.95;3.00;;;19.40;99.90;;;;;;5048309;28;20696;-60
2022/10/23 05:07:18;;;;;;;7.10;2.83;;;19.20;99.90;;;;;;5049838;28;20490;-61
2022/10/23 05:09:46;;;;;;;5.70;3.05;;;19.00;99.90;;;;;;5050024;28;20028;-60
2022/10/23 05:12:13;;;;;;;7.20;3.03;;;18.80;99.90;;;;;;5048091;28;20378;-60
2022/10/23 05:14:40;;;;;;;6.05;3.45;;;18.60;99.90;;;;;;5049291;28;20033;-60
2022/10/23 05:17:15;;;;;;;8.48;3.53;;;18.60;99.90;;;;;;5049393;28;20032;-60
2022/10/23 05:20:04;;;;;;;10.02;3.67;;;18.50;99.90;;;;;;5047930;28;20115;-60
2022/10/23 05:22:34;;;;;;;10.32;4.97;;;18.40;99.90;;;;;;5048028;28;20048;-60
2022/10/23 05:25:02;;;;;;;14.52;4.30;;;18.30;99.90;;;;;;5048098;28;20032;-60
2022/10/23 05:27:30;;;;;;;9.65;4.22;;;18.30;99.90;;;;;;5049323;28;20135;-60
2022/10/23 05:29:57;;;;;;;12.10;4.03;;;18.20;99.90;;;;;;5048070;28;20611;-61
2022/10/23 05:32:28;;;;;;;10.65;4.82;;;18.20;99.90;;;;;;5049187;28;20509;-60
2022/10/23 05:34:56;;;;;;;8.40;4.25;;;18.10;99.90;;;;;;5049184;28;20131;-60
2022/10/23 05:37:23;;;;;;;11.82;4.72;;;18.10;99.90;;;;;;5049103;28;20017;-60
2022/10/23 05:39:51;;;;;;;11.68;5.35;;;18.10;99.90;;;;;;5047971;28;20066;-61
2022/10/23 05:42:18;;;;;;;11.23;5.00;;;18.10;99.90;;;;;;5049830;28;20021;-60
2022/10/23 05:44:45;;;;;;;9.75;4.82;;;18.10;99.90;;;;;;5048205;28;20032;-60
2022/10/23 05:47:12;;;;;;;9.23;4.53;;;18.00;99.90;;;;;;5049063;28;20103;-60
2022/10/23 05:49:40;;;;;;;7.93;4.57;;;17.90;99.90;;;;;;5049127;28;20245;-60
2022/10/23 05:52:09;;;;;;;10.07;4.75;;;17.90;99.90;;;;;;5048930;28;20448;-60
2022/10/23 05:54:37;;;;;;;11.27;5.35;;;17.80;99.90;;;;;;5049060;28;20037;-60
2022/10/23 05:57:04;;;;;;;9.27;4.95;;;17.80;99.90;;;;;;5049041;28;20017;-60
2022/10/23 05:59:31;;;;;;;12.63;5.88;;;17.80;99.90;;;;;;5049044;28;20103;-60
2022/10/23 06:01:58;;;;;;;12.30;6.32;;;17.80;99.90;;;;;;5047739;28;20111;-60
2022/10/23 06:04:26;;;;;;;12.07;5.60;;;17.80;99.90;;;;;;5049536;28;20016;-60
2022/10/23 06:06:53;;;;;;;12.73;4.50;;;17.80;99.90;;;;;;5052704;28;20021;-60
2022/10/23 06:09:20;;;;;;;18.90;6.95;;;17.80;99.90;;;;;;5053107;28;20474;-60
2022/10/23 06:11:47;;;;;;;16.38;7.05;;;17.80;99.90;;;;;;5053430;28;20106;-60
2022/10/23 06:14:15;;;;;;;18.00;7.35;;;17.80;99.90;;;;;;5052866;28;20060;-60
2022/10/23 06:16:42;;;;;;;12.50;6.43;;;17.70;99.90;;;;;;5052672;28;20103;-60
2022/10/23 06:19:13;;;;;;;12.63;6.30;;;17.70;99.90;;;;;;5052820;28;20434;-60
2022/10/23 06:21:40;;;;;;;12.98;6.57;;;17.70;99.90;;;;;;5052489;28;20025;-60
2022/10/23 06:24:08;;;;;;;20.10;6.78;;;17.70;99.90;;;;;;5052735;28;20025;-60
2022/10/23 06:26:35;;;;;;;14.70;6.40;;;17.60;99.90;;;;;;5052426;28;20075;-60
2022/10/23 06:29:03;;;;;;;16.38;7.53;;;17.60;99.90;;;;;;5052580;28;20355;-61
2022/10/23 06:31:30;;;;;;;17.45;6.90;;;17.60;99.90;;;;;;5052624;28;20013;-60
2022/10/23 06:33:58;;;;;;;15.35;7.28;;;17.60;99.90;;;;;;5052352;28;20069;-60
2022/10/23 06:36:26;;;;;;;19.27;7.38;;;17.60;99.90;;;;;;5052186;28;20116;-60
2022/10/23 06:38:55;;;;;;;14.30;9.27;;;17.60;99.90;;;;;;5052320;28;20021;-60
2022/10/23 06:41:22;;;;;;;17.77;8.52;;;17.60;99.90;;;;;;5052247;28;20021;-60
2022/10/23 06:43:51;;;;;;;15.25;8.18;;;17.70;99.90;;;;;;5052842;28;20099;-60
2022/10/23 06:46:19;;;;;;;25.10;10.07;;;17.70;99.90;;;;;;5051288;28;20025;-60
2022/10/23 06:48:46;;;;;;;16.98;7.60;;;17.70;99.90;;;;;;5052717;28;20020;-60
2022/10/23 06:51:16;;;;;;;17.25;7.50;;;17.80;99.90;;;;;;5051934;28;20017;-60
2022/10/23 06:53:44;;;;;;;26.95;11.13;;;17.80;99.90;;;;;;5051817;28;20045;-60
2022/10/23 06:56:12;;;;;;;21.23;10.57;;;17.90;99.90;;;;;;5051998;28;20025;-61
2022/10/23 06:58:40;;;;;;;17.92;9.05;;;17.90;99.90;;;;;;5051942;28;20078;-60
2022/10/23 07:01:10;;;;;;;19.38;10.15;;;17.90;99.90;;;;;;5052066;28;20087;-60
2022/10/23 07:03:38;;;;;;;21.35;11.25;;;17.90;99.90;;;;;;5052044;28;20048;-60
2022/10/23 07:06:07;;;;;;;15.95;8.60;;;17.90;99.90;;;;;;5051677;28;20029;-60
2022/10/23 07:08:34;;;;;;;16.20;7.05;;;17.90;99.90;;;;;;5051837;28;20056;-60
2022/10/23 07:11:10;;;;;;;18.75;5.85;;;17.90;99.90;;;;;;5051963;28;20111;-60
2022/10/23 07:13:38;;;;;;;16.17;5.82;;;17.90;99.90;;;;;;5050256;28;20036;-60
2022/10/23 07:16:20;;;;;;;17.80;6.85;;;17.90;99.90;;;;;;5045440;28;20447;-61
2022/10/23 07:18:48;;;;;;;16.13;7.00;;;17.90;99.90;;;;;;5045356;28;20032;-59
2022/10/23 07:21:15;;;;;;;21.30;8.45;;;17.80;99.90;;;;;;5049603;28;20428;-59
2022/10/23 07:23:43;;;;;;;9.43;5.40;;;17.80;99.90;;;;;;5056426;28;20036;-59
2022/10/23 07:26:14;;;;;;;15.65;7.20;;;17.80;99.90;;;;;;5056690;28;20029;-59
2022/10/23 07:28:42;;;;;;;19.77;6.25;;;17.80;99.90;;;;;;5051125;28;20095;-58
2022/10/23 07:31:10;;;;;;;21.83;7.30;;;17.70;99.90;;;;;;5045829;28;20021;-59
2022/10/23 07:33:38;;;;;;;24.65;8.77;;;17.70;99.90;;;;;;5048593;28;20450;-58
2022/10/23 07:36:07;;;;;;;15.80;7.85;;;17.70;99.90;;;;;;5042697;28;20108;-58
2022/10/23 07:38:35;;;;;;;20.30;10.00;;;17.70;99.90;;;;;;5049901;28;20025;-58
2022/10/23 07:41:02;;;;;;;20.90;9.73;;;17.70;99.90;;;;;;5045945;28;20017;-57
2022/10/23 07:43:30;;;;;;;26.45;9.80;;;17.70;99.90;;;;;;5043133;28;20025;-60
2022/10/23 07:45:57;;;;;;;13.88;4.78;;;17.70;99.90;;;;;;5046347;28;20074;-58
2022/10/23 07:48:26;;;;;;;15.80;5.15;;;17.70;99.90;;;;;;5044123;28;20474;-58
2022/10/23 07:50:56;;;;;;;17.30;4.75;;;17.70;99.90;;;;;;5045402;28;20040;-58
2022/10/23 07:53:25;;;;;;;9.68;4.20;;;17.70;99.90;;;;;;5047733;28;20520;-58
2022/10/23 07:55:53;;;;;;;25.55;5.97;;;17.70;99.90;;;;;;5051167;28;20036;-58
2022/10/23 07:58:20;;;;;;;12.73;3.75;;;17.60;99.90;;;;;;5045533;28;20386;-58
2022/10/23 08:00:55;;;;;;;14.63;5.40;;;17.70;99.90;;;;;;5053971;28;20029;-58
2022/10/23 08:03:22;;;;;;;12.45;3.97;;;17.60;99.90;;;;;;5048787;28;20021;-59
2022/10/23 08:05:49;;;;;;;18.67;4.15;;;17.60;99.90;;;;;;5050267;28;20035;-58
2022/10/23 08:08:16;;;;;;;18.60;4.28;;;17.60;99.90;;;;;;5049849;28;20123;-58
2022/10/23 08:10:45;;;;;;;17.20;4.03;;;17.60;99.90;;;;;;5049949;28;20021;-57
2022/10/23 08:13:13;;;;;;;11.90;4.25;;;17.60;99.90;;;;;;5049568;28;20671;-58
2022/10/23 08:15:41;;;;;;;19.63;4.95;;;17.60;99.90;;;;;;5049407;28;20025;-58
2022/10/23 08:18:08;;;;;;;15.10;4.32;;;17.50;99.90;;;;;;5049291;28;20111;-57
2022/10/23 08:20:43;;;;;;;15.23;5.05;;;17.50;99.90;;;;;;5049039;28;20773;-58
2022/10/23 08:23:13;;;;;;;;;;;17.50;99.90;;;;;;5049488;28;20482;-56
2022/10/23 08:25:40;;;;;;;16.13;5.03;;;17.50;99.90;;;;;;5049732;28;20377;-57
2022/10/23 08:28:09;;;;;;;20.45;4.70;;;17.50;99.90;;;;;;5048862;28;20025;-58
2022/10/23 08:30:37;;;;;;;17.58;5.20;;;17.50;99.90;;;;;;5049350;28;20044;-61
2022/10/23 08:33:06;;;;;;;23.02;6.15;;;17.50;99.90;;;;;;5050055;28;20462;-61
2022/10/23 08:35:37;;;;;;;18.20;5.38;;;17.50;99.90;;;;;;5048613;28;20087;-61
2022/10/23 08:38:05;;;;;;;19.92;5.35;;;17.40;99.90;;;;;;5050194;28;20067;-60
2022/10/23 08:40:34;;;;;;;12.52;5.45;;;17.40;99.90;;;;;;5049563;28;20040;-61
2022/10/23 08:43:10;;;;;;;29.70;9.35;;;17.40;99.90;;;;;;5048421;28;20024;-61
2022/10/23 08:45:49;;;;;;;18.42;6.43;;;17.40;99.90;;;;;;5044762;28;20033;-61
2022/10/23 08:48:30;;;;;;;24.20;7.22;;;17.40;99.90;;;;;;5049963;28;20033;-61
2022/10/23 08:51:14;;;;;;;18.20;8.80;;;17.50;99.90;;;;;;5061815;28;20038;-59
2022/10/23 08:53:53;;;;;;;17.70;8.00;;;17.40;99.90;;;;;;5041199;28;20053;-60
2022/10/23 08:56:43;;;;;;;11.48;5.82;;;17.50;99.90;;;;;;5050168;28;20020;-60
2022/10/23 08:59:53;;;;;;;11.18;5.95;;;17.50;99.90;;;;;;5064642;28;20032;-60
2022/10/23 09:02:41;;;;;;;19.17;4.65;;;17.40;99.90;;;;;;5048996;28;20041;-59
2022/10/23 09:05:40;;;;;;;21.27;9.82;;;17.40;99.90;;;;;;5046817;28;20085;-61
2022/10/23 09:08:20;;;;;;;16.45;8.82;;;17.40;99.90;;;;;;5034590;28;20115;-59
2022/10/23 09:11:05;;;;;;;17.85;6.47;;;17.40;99.90;;;;;;5045536;28;20482;-59
2022/10/23 09:13:38;;;;;;;13.40;5.03;;;17.50;99.90;;;;;;5044366;28;20037;-60
2022/10/23 09:16:15;;;;;;;12.68;4.03;;;17.40;99.90;;;;;;5045950;28;20394;-60
2022/10/23 09:18:43;;;;;;;14.98;4.25;;;17.40;99.90;;;;;;5042944;28;20017;-60
2022/10/23 09:21:10;;;;;;;10.18;4.18;;;17.40;99.90;;;;;;5042468;28;20401;-60
2022/10/23 09:23:38;;;;;;;10.70;3.85;;;17.40;99.90;;;;;;5045203;28;20023;-60
2022/10/23 09:26:16;;;;;;;12.70;4.40;;;17.40;99.90;;;;;;5045304;28;20099;-61
2022/10/23 09:29:12;;;;;;;25.27;6.25;;;17.40;99.90;;;;;;5043065;28;20558;-60
2022/10/23 09:31:51;;;;;;;12.93;4.97;;;17.40;99.90;;;;;;5045181;28;20028;-60
2022/10/23 09:34:24;;;;;;;12.20;5.03;;;17.40;99.90;;;;;;5045121;28;20029;-60
2022/10/23 09:36:53;;;;;;;14.63;4.15;;;17.40;99.90;;;;;;5045501;28;20049;-61
2022/10/23 09:39:25;;;;;;;14.57;3.88;;;17.40;99.90;;;;;;5044755;28;20082;-66
2022/10/23 09:41:52;;;;;;;12.07;4.10;;;17.40;99.90;;;;;;5050279;28;20025;-60
2022/10/23 09:44:23;;;;;;;22.50;5.07;;;17.40;99.90;;;;;;5049739;28;20058;-61
2022/10/23 09:46:58;;;;;;;12.65;3.80;;;17.40;99.90;;;;;;5050359;28;20090;-59
2022/10/23 09:49:30;;;;;;;11.00;3.50;;;17.40;99.90;;;;;;5050656;28;20025;-59
2022/10/23 09:52:05;;;;;;;14.35;3.80;;;17.40;99.90;;;;;;5050447;28;20123;-60
2022/10/23 09:54:57;;;;;;;15.18;4.22;;;17.40;99.90;;;;;;5050536;28;20588;-60
2022/10/23 09:57:30;;;;;;;15.52;4.80;;;17.30;99.90;;;;;;5050277;28;20033;-60
2022/10/23 10:00:03;;;;;;;8.38;3.60;;;17.30;99.90;;;;;;5050590;28;20031;-60
2022/10/23 10:02:34;;;;;;;9.43;3.38;;;17.30;99.90;;;;;;5051088;28;20437;-61
2022/10/23 10:05:25;;;;;;;19.80;4.85;;;17.30;99.90;;;;;;5050075;28;20517;-60
2022/10/23 10:08:19;;;;;;;20.52;2.95;;;17.30;99.90;;;;;;5033559;28;20024;-60
2022/10/23 10:10:54;;;;;;;13.53;3.37;;;17.30;99.90;;;;;;5046871;28;20025;-60
2022/10/23 10:13:35;;;;;;;11.30;3.58;;;17.30;99.90;;;;;;5050581;28;20029;-60
2022/10/23 10:16:11;;;;;;;11.30;3.03;;;17.30;99.90;;;;;;5049171;28;20071;-59
2022/10/23 10:18:55;;;;;;;10.98;2.58;;;17.20;99.90;;;;;;5050410;28;20029;-60
2022/10/23 10:21:48;;;;;;;9.40;2.92;;;17.20;99.90;;;;;;5049727;28;20031;-61
2022/10/23 10:24:20;;;;;;;11.90;3.45;;;17.10;99.90;;;;;;5045270;28;20118;-61
2022/10/23 10:27:04;;;;;;;12.70;5.65;;;17.10;99.90;;;;;;5050195;28;20033;-61
2022/10/23 10:29:50;;;;;;;12.60;6.07;;;17.00;99.90;;;;;;5050151;28;20116;-61
2022/10/23 10:32:32;;;;;;;19.35;8.65;;;17.00;99.90;;;;;;5050173;28;20029;-61
2022/10/23 10:35:17;;;;;;;18.85;11.35;;;17.00;99.90;;;;;;5048857;28;20666;-62
2022/10/23 10:38:25;;;;;;;21.15;14.10;;;17.00;99.90;;;;;;5049419;28;20418;-59
2022/10/23 10:41:30;;;;;;;26.02;18.33;;;17.00;99.90;;;;;;5049450;28;20083;-61
2022/10/23 10:44:12;;;;;;;20.63;16.52;;;17.00;99.90;;;;;;5046553;28;20021;-59
2022/10/23 10:46:58;;;;;;;26.35;10.57;;;16.90;99.90;;;;;;5048168;28;20603;-61
2022/10/23 10:49:41;;;;;;;15.43;6.03;;;16.90;99.90;;;;;;5035921;28;20033;-60
2022/10/23 10:52:23;;;;;;;17.35;5.72;;;16.90;99.90;;;;;;5048225;28;20090;-61
2022/10/23 10:55:27;;;;;;;16.48;4.90;;;16.80;99.90;;;;;;5048843;28;20169;-60
2022/10/23 10:58:23;;;;;;;14.15;4.07;;;16.90;99.90;;;;;;5045549;28;20083;-60
2022/10/23 11:00:55;;;;;;;12.48;4.35;;;16.90;99.90;;;;;;5046482;28;20033;-61
2022/10/23 11:03:41;;;;;;;12.70;4.35;;;16.80;99.90;;;;;;5045255;28;20035;-60
2022/10/23 11:06:22;;;;;;;13.85;4.25;;;16.90;99.90;;;;;;5047726;28;20481;-59
2022/10/23 11:08:49;;;;;;;12.45;3.08;;;16.80;99.90;;;;;;5042073;28;20029;-60
2022/10/23 11:11:36;;;;;;;16.50;3.78;;;16.80;99.90;;;;;;5049705;28;20024;-60
2022/10/23 11:14:04;;;;;;;13.88;4.05;;;16.80;99.90;;;;;;5051436;28;20025;-60
2022/10/23 11:16:35;;;;;;;13.50;4.20;;;16.80;99.90;;;;;;5050932;28;20036;-60
2022/10/23 11:19:26;;;;;;;14.70;4.35;;;16.80;99.90;;;;;;5050425;28;20067;-60
2022/10/23 11:21:59;;;;;;;15.05;4.38;;;16.80;99.90;;;;;;5056696;28;20485;-60
2022/10/23 11:24:50;;;;;;;12.77;4.28;;;16.70;99.90;;;;;;5058604;28;20040;-60
2022/10/23 11:27:23;;;;;;;8.82;3.50;;;16.70;99.90;;;;;;5048439;28;20017;-60
2022/10/23 11:30:08;;;;;;;14.23;3.90;;;16.70;99.90;;;;;;5048855;28;20032;-61
2022/10/23 11:32:53;;;;;;;10.90;4.68;;;16.70;99.90;;;;;;5051168;28;20055;-61
2022/10/23 11:35:30;;;;;;;11.50;4.68;;;16.70;99.90;;;;;;5048496;28;20036;-61
2022/10/23 11:38:17;;;;;;;10.73;5.25;;;16.60;99.90;;;;;;5055054;28;20474;-61
2022/10/23 11:40:51;;;;;;;16.85;7.30;;;16.50;99.90;;;;;;5049778;28;20521;-61
2022/10/23 11:43:49;;;;;;;18.30;7.45;;;16.50;99.90;;;;;;5051823;28;20483;-61
2022/10/23 11:46:24;;;;;;;18.08;8.25;;;16.40;99.90;;;;;;5032625;28;20040;-60
2022/10/23 11:48:53;;;;;;;14.82;9.18;;;16.40;99.90;;;;;;5046634;28;20025;-61
2022/10/23 11:51:29;;;;;;;19.30;7.68;;;16.40;99.90;;;;;;5045815;28;20059;-60
2022/10/23 11:54:23;;;;;;;24.85;6.78;;;16.40;99.90;;;;;;5046140;28;20040;-60
2022/10/23 11:56:55;;;;;;;15.10;6.50;;;16.40;99.90;;;;;;5052280;28;20551;-60
2022/10/23 11:59:49;;;;;;;10.63;5.30;;;16.50;99.90;;;;;;5048322;28;20021;-61
2022/10/23 12:02:33;;;;;;;17.33;5.60;;;16.50;99.90;;;;;;5048565;28;20109;-60
2022/10/23 12:05:09;;;;;;;15.82;5.25;;;16.50;99.90;;;;;;5035354;28;20033;-60
2022/10/23 12:07:39;;;;;;;13.52;5.45;;;16.50;99.90;;;;;;5048576;28;20115;-60
2022/10/23 12:10:19;;;;;;;20.63;6.50;;;16.60;99.90;;;;;;5049357;28;20508;-61
2022/10/23 12:12:58;;;;;;;20.60;4.95;;;16.60;99.90;;;;;;5045273;28;20025;-61
2022/10/23 12:15:26;;;;;;;13.63;4.82;;;16.70;99.90;;;;;;5052369;28;20123;-60
2022/10/23 12:18:06;;;;;;;14.35;5.53;;;16.70;99.90;;;;;;5052913;28;20017;-59
2022/10/23 12:20:46;;;;;;;18.65;4.85;;;16.70;99.90;;;;;;5044089;28;20039;-60
2022/10/23 12:23:26;;;;;;;14.93;5.32;;;16.80;99.90;;;;;;5049356;28;20025;-59
2022/10/23 12:26:31;;;;;;;10.77;5.45;;;16.80;99.90;;;;;;5053326;28;20067;-60
2022/10/23 12:29:23;;;;;;;14.70;6.93;;;16.80;99.90;;;;;;5022313;28;20148;-60
2022/10/23 12:32:16;;;;;;;22.90;9.52;;;16.80;99.90;;;;;;5044439;28;20025;-60
2022/10/23 12:35:20;;;;;;;26.73;12.82;;;16.90;99.90;;;;;;5062182;28;20128;-60
2022/10/23 12:37:56;;;;;;;19.13;11.98;;;16.90;99.90;;;;;;5047032;28;20033;-60
2022/10/23 12:40:28;;;;;;;23.60;12.35;;;16.90;99.90;;;;;;5056593;28;20551;-60
2022/10/23 12:42:58;;;;;;;18.95;10.35;;;16.90;99.90;;;;;;5050466;28;20494;-60
2022/10/23 12:45:39;;;;;;;20.83;9.68;;;16.90;99.90;;;;;;5044973;28;20029;-60
2022/10/23 12:48:06;;;;;;;17.42;8.68;;;16.90;99.90;;;;;;5050127;28;20052;-60
2022/10/23 12:50:34;;;;;;;15.32;7.85;;;17.00;99.90;;;;;;5059540;28;20429;-60
2022/10/23 12:53:05;;;;;;;18.65;6.40;;;17.00;99.90;;;;;;5039433;28;20048;-60
2022/10/23 12:55:53;;;;;;;21.48;9.30;;;17.00;99.90;;;;;;5043527;28;20509;-59
2022/10/23 12:58:32;;;;;;;22.38;9.75;;;17.00;99.90;;;;;;5048455;28;20028;-59
2022/10/23 13:01:03;;;;;;;24.02;9.98;;;17.10;99.90;;;;;;5049491;28;20360;-60
2022/10/23 13:03:33;;;;;;;29.52;12.57;;;17.10;99.90;;;;;;5041574;28;20075;-60
2022/10/23 13:06:02;;;;;;;17.05;10.48;;;17.10;99.90;;;;;;5043021;28;20025;-60
2022/10/23 13:08:42;;;;;;;23.27;9.45;;;17.10;99.90;;;;;;5048163;28;20028;-59
2022/10/23 13:11:15;;;;;;;21.13;7.55;;;17.10;99.90;;;;;;5047809;28;20068;-60
2022/10/23 13:13:43;;;;;;;18.10;6.70;;;17.10;99.90;;;;;;5048391;28;20036;-60
2022/10/23 13:16:15;;;;;;;14.18;5.80;;;17.10;99.90;;;;;;5046035;28;20020;-60